sensor_id;sensor_type;location;lat;lon;timestamp;P1;durP1;ratioP1;P2;durP2;ratioP2
31994;SDS011;51311;50.870;7.048;2022-08-19T00:00:39;3.20;;;1.80;;
31994;SDS011;51311;50.870;7.048;2022-08-19T00:04:39;3.40;;;1.90;;
31994;SDS011;51311;50.870;7.048;2022-08-19T00:08:39;4.30;;;2.00;;
31994;SDS011;51311;50.870;7.048;2022-08-19T00:12:39;3.00;;;1.90;;
31994;SDS011;51311;50.870;7.048;2022-08-19T00:16:40;4.30;;;2.00;;
31994;SDS011;51311;50.870;7.048;2022-08-19T00:20:40;3.30;;;2.00;;
31994;SDS011;51311;50.870;7.048;2022-08-19T00:24:40;4.50;;;2.20;;
31994;SDS011;51311;50.870;7.048;2022-08-19T00:28:40;2.50;;;1.50;;
31994;SDS011;51311;50.870;7.048;2022-08-19T00:32:40;3.20;;;2.00;;
31994;SDS011;51311;50.870;7.048;2022-08-19T00:36:41;3.10;;;1.80;;
31994;SDS011;51311;50.870;7.048;2022-08-19T00:40:42;3.50;;;1.90;;
31994;SDS011;51311;50.870;7.048;2022-08-19T00:44:41;4.50;;;2.00;;
31994;SDS011;51311;50.870;7.048;2022-08-19T00:48:41;3.30;;;2.00;;
31994;SDS011;51311;50.870;7.048;2022-08-19T00:52:43;3.50;;;2.10;;
31994;SDS011;51311;50.870;7.048;2022-08-19T00:56:41;3.90;;;2.10;;
31994;SDS011;51311;50.870;7.048;2022-08-19T01:00:41;3.40;;;2.10;;
31994;SDS011;51311;50.870;7.048;2022-08-19T01:04:41;3.10;;;2.00;;
31994;SDS011;51311;50.870;7.048;2022-08-19T01:08:42;5.00;;;2.00;;
31994;SDS011;51311;50.870;7.048;2022-08-19T01:12:42;3.30;;;2.10;;
31994;SDS011;51311;50.870;7.048;2022-08-19T01:16:42;3.40;;;2.00;;
31994;SDS011;51311;50.870;7.048;2022-08-19T01:20:42;3.80;;;2.40;;
31994;SDS011;51311;50.870;7.048;2022-08-19T01:24:42;3.50;;;2.10;;
31994;SDS011;51311;50.870;7.048;2022-08-19T01:28:43;4.00;;;2.10;;
31994;SDS011;51311;50.870;7.048;2022-08-19T01:32:43;3.40;;;1.80;;
31994;SDS011;51311;50.870;7.048;2022-08-19T01:36:43;4.00;;;2.00;;
31994;SDS011;51311;50.870;7.048;2022-08-19T01:40:43;4.10;;;2.10;;
31994;SDS011;51311;50.870;7.048;2022-08-19T01:44:43;5.50;;;2.60;;
31994;SDS011;51311;50.870;7.048;2022-08-19T01:48:44;3.00;;;2.10;;
31994;SDS011;51311;50.870;7.048;2022-08-19T01:52:44;4.10;;;2.10;;
31994;SDS011;51311;50.870;7.048;2022-08-19T01:56:44;4.30;;;2.30;;
31994;SDS011;51311;50.870;7.048;2022-08-19T02:00:44;3.10;;;2.00;;
31994;SDS011;51311;50.870;7.048;2022-08-19T02:04:44;4.20;;;2.40;;
31994;SDS011;51311;50.870;7.048;2022-08-19T02:08:44;3.90;;;2.40;;
31994;SDS011;51311;50.870;7.048;2022-08-19T02:12:44;4.20;;;2.30;;
31994;SDS011;51311;50.870;7.048;2022-08-19T02:16:44;3.50;;;2.20;;
31994;SDS011;51311;50.870;7.048;2022-08-19T02:20:45;2.80;;;2.00;;
31994;SDS011;51311;50.870;7.048;2022-08-19T02:24:45;3.90;;;2.40;;
31994;SDS011;51311;50.870;7.048;2022-08-19T02:28:45;3.40;;;2.00;;
31994;SDS011;51311;50.870;7.048;2022-08-19T02:32:45;3.20;;;2.20;;
31994;SDS011;51311;50.870;7.048;2022-08-19T02:36:45;3.40;;;1.90;;
31994;SDS011;51311;50.870;7.048;2022-08-19T02:40:48;3.40;;;2.10;;
31994;SDS011;51311;50.870;7.048;2022-08-19T02:44:46;4.30;;;2.30;;
31994;SDS011;51311;50.870;7.048;2022-08-19T02:48:47;3.50;;;2.30;;
31994;SDS011;51311;50.870;7.048;2022-08-19T02:52:46;3.10;;;2.10;;
31994;SDS011;51311;50.870;7.048;2022-08-19T02:56:46;3.50;;;2.20;;
31994;SDS011;51311;50.870;7.048;2022-08-19T03:00:47;3.80;;;2.10;;
31994;SDS011;51311;50.870;7.048;2022-08-19T03:04:46;4.40;;;2.10;;
31994;SDS011;51311;50.870;7.048;2022-08-19T03:08:47;3.40;;;2.10;;
31994;SDS011;51311;50.870;7.048;2022-08-19T03:12:47;2.90;;;2.00;;
31994;SDS011;51311;50.870;7.048;2022-08-19T03:16:48;3.70;;;2.00;;
31994;SDS011;51311;50.870;7.048;2022-08-19T03:20:49;4.60;;;2.10;;
31994;SDS011;51311;50.870;7.048;2022-08-19T03:24:47;3.30;;;2.20;;
31994;SDS011;51311;50.870;7.048;2022-08-19T03:28:47;3.30;;;2.20;;
31994;SDS011;51311;50.870;7.048;2022-08-19T03:32:48;4.30;;;2.50;;
31994;SDS011;51311;50.870;7.048;2022-08-19T03:36:48;3.40;;;1.90;;
31994;SDS011;51311;50.870;7.048;2022-08-19T03:40:48;4.40;;;2.60;;
31994;SDS011;51311;50.870;7.048;2022-08-19T03:44:48;4.20;;;2.30;;
31994;SDS011;51311;50.870;7.048;2022-08-19T03:48:50;5.10;;;2.30;;
31994;SDS011;51311;50.870;7.048;2022-08-19T03:52:49;4.40;;;2.40;;
31994;SDS011;51311;50.870;7.048;2022-08-19T03:56:49;3.20;;;2.00;;
31994;SDS011;51311;50.870;7.048;2022-08-19T04:04:49;3.20;;;1.90;;
31994;SDS011;51311;50.870;7.048;2022-08-19T04:08:50;2.60;;;1.90;;
31994;SDS011;51311;50.870;7.048;2022-08-19T04:12:49;3.00;;;1.90;;
31994;SDS011;51311;50.870;7.048;2022-08-19T04:16:50;2.70;;;1.70;;
31994;SDS011;51311;50.870;7.048;2022-08-19T04:20:50;4.00;;;2.00;;
31994;SDS011;51311;50.870;7.048;2022-08-19T04:24:50;3.20;;;1.90;;
31994;SDS011;51311;50.870;7.048;2022-08-19T04:28:50;4.30;;;2.40;;
31994;SDS011;51311;50.870;7.048;2022-08-19T04:32:50;3.60;;;2.20;;
31994;SDS011;51311;50.870;7.048;2022-08-19T04:36:51;4.40;;;2.40;;
31994;SDS011;51311;50.870;7.048;2022-08-19T04:40:51;5.40;;;2.30;;
31994;SDS011;51311;50.870;7.048;2022-08-19T04:44:51;4.00;;;2.50;;
31994;SDS011;51311;50.870;7.048;2022-08-19T04:48:51;4.90;;;2.70;;
31994;SDS011;51311;50.870;7.048;2022-08-19T04:52:51;4.60;;;2.80;;
31994;SDS011;51311;50.870;7.048;2022-08-19T04:56:52;6.60;;;3.70;;
31994;SDS011;51311;50.870;7.048;2022-08-19T05:00:51;6.60;;;3.60;;
31994;SDS011;51311;50.870;7.048;2022-08-19T05:04:58;8.20;;;4.10;;
31994;SDS011;51311;50.870;7.048;2022-08-19T05:08:52;7.40;;;4.20;;
31994;SDS011;51311;50.870;7.048;2022-08-19T05:12:52;7.30;;;4.60;;
31994;SDS011;51311;50.870;7.048;2022-08-19T05:16:52;7.90;;;4.40;;
31994;SDS011;51311;50.870;7.048;2022-08-19T05:20:52;10.00;;;4.80;;
31994;SDS011;51311;50.870;7.048;2022-08-19T05:24:52;7.70;;;4.40;;
31994;SDS011;51311;50.870;7.048;2022-08-19T05:28:53;10.50;;;5.00;;
31994;SDS011;51311;50.870;7.048;2022-08-19T05:32:53;9.30;;;5.20;;
31994;SDS011;51311;50.870;7.048;2022-08-19T05:36:54;12.60;;;4.80;;
31994;SDS011;51311;50.870;7.048;2022-08-19T05:40:53;10.90;;;4.90;;
31994;SDS011;51311;50.870;7.048;2022-08-19T05:44:53;7.60;;;4.90;;
31994;SDS011;51311;50.870;7.048;2022-08-19T05:48:54;8.70;;;4.90;;
31994;SDS011;51311;50.870;7.048;2022-08-19T05:52:53;8.90;;;5.10;;
31994;SDS011;51311;50.870;7.048;2022-08-19T05:56:54;9.20;;;4.90;;
31994;SDS011;51311;50.870;7.048;2022-08-19T06:00:54;12.00;;;5.50;;
31994;SDS011;51311;50.870;7.048;2022-08-19T06:04:54;10.00;;;5.30;;
31994;SDS011;51311;50.870;7.048;2022-08-19T06:08:54;12.70;;;6.40;;
31994;SDS011;51311;50.870;7.048;2022-08-19T06:12:54;12.70;;;6.80;;
31994;SDS011;51311;50.870;7.048;2022-08-19T06:16:55;16.30;;;6.60;;
31994;SDS011;51311;50.870;7.048;2022-08-19T06:20:55;12.10;;;6.40;;
31994;SDS011;51311;50.870;7.048;2022-08-19T06:24:55;11.60;;;6.20;;
31994;SDS011;51311;50.870;7.048;2022-08-19T06:28:55;14.30;;;6.60;;
31994;SDS011;51311;50.870;7.048;2022-08-19T06:32:56;12.10;;;7.30;;
31994;SDS011;51311;50.870;7.048;2022-08-19T06:41:00;13.10;;;6.50;;
31994;SDS011;51311;50.870;7.048;2022-08-19T06:44:56;14.30;;;7.10;;
31994;SDS011;51311;50.870;7.048;2022-08-19T06:48:57;13.40;;;6.70;;
31994;SDS011;51311;50.870;7.048;2022-08-19T06:52:57;13.60;;;7.20;;
31994;SDS011;51311;50.870;7.048;2022-08-19T06:56:58;14.80;;;6.90;;
31994;SDS011;51311;50.870;7.048;2022-08-19T07:00:58;19.90;;;7.50;;
31994;SDS011;51311;50.870;7.048;2022-08-19T07:04:57;13.20;;;6.20;;
31994;SDS011;51311;50.870;7.048;2022-08-19T07:08:57;12.60;;;6.00;;
31994;SDS011;51311;50.870;7.048;2022-08-19T07:12:57;12.70;;;6.90;;
31994;SDS011;51311;50.870;7.048;2022-08-19T07:16:58;11.50;;;6.20;;
31994;SDS011;51311;50.870;7.048;2022-08-19T07:21:05;15.10;;;7.60;;
31994;SDS011;51311;50.870;7.048;2022-08-19T07:24:58;15.80;;;8.10;;
31994;SDS011;51311;50.870;7.048;2022-08-19T07:28:58;14.50;;;8.00;;
31994;SDS011;51311;50.870;7.048;2022-08-19T07:32:58;13.60;;;7.30;;
31994;SDS011;51311;50.870;7.048;2022-08-19T07:36:59;14.10;;;6.90;;
31994;SDS011;51311;50.870;7.048;2022-08-19T07:40:59;12.90;;;6.70;;
31994;SDS011;51311;50.870;7.048;2022-08-19T07:44:59;15.00;;;7.00;;
31994;SDS011;51311;50.870;7.048;2022-08-19T07:48:59;12.10;;;5.30;;
31994;SDS011;51311;50.870;7.048;2022-08-19T07:52:59;11.30;;;5.90;;
31994;SDS011;51311;50.870;7.048;2022-08-19T07:57:00;11.20;;;5.80;;
31994;SDS011;51311;50.870;7.048;2022-08-19T08:01:00;9.10;;;5.00;;
31994;SDS011;51311;50.870;7.048;2022-08-19T08:05:00;9.40;;;5.10;;
31994;SDS011;51311;50.870;7.048;2022-08-19T08:09:01;10.50;;;4.90;;
31994;SDS011;51311;50.870;7.048;2022-08-19T08:13:00;7.70;;;4.70;;
31994;SDS011;51311;50.870;7.048;2022-08-19T08:17:01;7.90;;;4.10;;
31994;SDS011;51311;50.870;7.048;2022-08-19T08:21:01;13.60;;;5.80;;
31994;SDS011;51311;50.870;7.048;2022-08-19T08:25:03;12.40;;;5.10;;
31994;SDS011;51311;50.870;7.048;2022-08-19T08:29:01;5.90;;;3.60;;
31994;SDS011;51311;50.870;7.048;2022-08-19T08:33:01;11.00;;;4.80;;
31994;SDS011;51311;50.870;7.048;2022-08-19T08:37:01;14.00;;;5.20;;
31994;SDS011;51311;50.870;7.048;2022-08-19T08:41:04;9.60;;;5.00;;
31994;SDS011;51311;50.870;7.048;2022-08-19T08:45:03;15.10;;;6.70;;
31994;SDS011;51311;50.870;7.048;2022-08-19T08:49:04;11.10;;;5.00;;
31994;SDS011;51311;50.870;7.048;2022-08-19T08:53:02;10.90;;;5.00;;
31994;SDS011;51311;50.870;7.048;2022-08-19T08:57:03;8.70;;;4.40;;
31994;SDS011;51311;50.870;7.048;2022-08-19T09:01:02;8.50;;;4.80;;
31994;SDS011;51311;50.870;7.048;2022-08-19T09:05:03;12.00;;;5.50;;
31994;SDS011;51311;50.870;7.048;2022-08-19T09:09:04;12.60;;;5.70;;
31994;SDS011;51311;50.870;7.048;2022-08-19T09:13:31;14.70;;;7.00;;
31994;SDS011;51311;50.870;7.048;2022-08-19T09:21:04;14.90;;;6.90;;
31994;SDS011;51311;50.870;7.048;2022-08-19T09:25:05;12.30;;;7.00;;
31994;SDS011;51311;50.870;7.048;2022-08-19T09:29:05;17.60;;;6.80;;
31994;SDS011;51311;50.870;7.048;2022-08-19T09:33:05;15.30;;;7.30;;
31994;SDS011;51311;50.870;7.048;2022-08-19T09:37:05;14.80;;;7.70;;
31994;SDS011;51311;50.870;7.048;2022-08-19T09:41:07;15.50;;;6.90;;
31994;SDS011;51311;50.870;7.048;2022-08-19T09:45:05;19.10;;;7.50;;
31994;SDS011;51311;50.870;7.048;2022-08-19T09:49:05;14.50;;;7.30;;
31994;SDS011;51311;50.870;7.048;2022-08-19T09:53:06;13.50;;;5.60;;
31994;SDS011;51311;50.870;7.048;2022-08-19T09:57:06;14.00;;;6.30;;
31994;SDS011;51311;50.870;7.048;2022-08-19T10:01:06;16.20;;;7.70;;
31994;SDS011;51311;50.870;7.048;2022-08-19T10:05:06;13.90;;;6.50;;
31994;SDS011;51311;50.870;7.048;2022-08-19T10:09:07;12.00;;;6.10;;
31994;SDS011;51311;50.870;7.048;2022-08-19T10:13:06;12.70;;;6.20;;
31994;SDS011;51311;50.870;7.048;2022-08-19T10:17:07;10.10;;;5.60;;
31994;SDS011;51311;50.870;7.048;2022-08-19T10:21:08;13.80;;;6.20;;
31994;SDS011;51311;50.870;7.048;2022-08-19T10:25:07;10.70;;;5.90;;
31994;SDS011;51311;50.870;7.048;2022-08-19T10:29:07;8.00;;;4.20;;
31994;SDS011;51311;50.870;7.048;2022-08-19T10:33:07;11.10;;;4.60;;
31994;SDS011;51311;50.870;7.048;2022-08-19T10:37:07;5.80;;;3.40;;
31994;SDS011;51311;50.870;7.048;2022-08-19T10:41:10;7.10;;;3.50;;
31994;SDS011;51311;50.870;7.048;2022-08-19T10:45:08;6.50;;;3.30;;
31994;SDS011;51311;50.870;7.048;2022-08-19T10:49:09;5.90;;;3.40;;
31994;SDS011;51311;50.870;7.048;2022-08-19T10:53:08;11.50;;;4.20;;
31994;SDS011;51311;50.870;7.048;2022-08-19T10:57:08;6.50;;;3.40;;
31994;SDS011;51311;50.870;7.048;2022-08-19T11:01:08;5.30;;;3.30;;
31994;SDS011;51311;50.870;7.048;2022-08-19T11:05:09;6.00;;;3.30;;
31994;SDS011;51311;50.870;7.048;2022-08-19T11:09:09;6.90;;;3.00;;
31994;SDS011;51311;50.870;7.048;2022-08-19T11:17:09;5.60;;;3.00;;
31994;SDS011;51311;50.870;7.048;2022-08-19T11:25:10;6.60;;;2.70;;
31994;SDS011;51311;50.870;7.048;2022-08-19T11:29:10;3.90;;;2.70;;
31994;SDS011;51311;50.870;7.048;2022-08-19T11:33:10;5.90;;;2.60;;
31994;SDS011;51311;50.870;7.048;2022-08-19T11:37:10;4.70;;;2.80;;
31994;SDS011;51311;50.870;7.048;2022-08-19T11:41:10;5.90;;;3.00;;
31994;SDS011;51311;50.870;7.048;2022-08-19T11:45:10;6.40;;;2.60;;
31994;SDS011;51311;50.870;7.048;2022-08-19T11:49:10;5.70;;;2.70;;
31994;SDS011;51311;50.870;7.048;2022-08-19T11:53:11;4.80;;;2.40;;
31994;SDS011;51311;50.870;7.048;2022-08-19T11:57:11;5.80;;;2.50;;
31994;SDS011;51311;50.870;7.048;2022-08-19T12:01:11;5.20;;;2.30;;
31994;SDS011;51311;50.870;7.048;2022-08-19T12:05:11;6.20;;;2.80;;
31994;SDS011;51311;50.870;7.048;2022-08-19T12:09:11;4.30;;;2.60;;
31994;SDS011;51311;50.870;7.048;2022-08-19T12:13:12;4.60;;;2.30;;
31994;SDS011;51311;50.870;7.048;2022-08-19T12:17:12;3.60;;;2.20;;
31994;SDS011;51311;50.870;7.048;2022-08-19T12:21:13;5.00;;;2.30;;
31994;SDS011;51311;50.870;7.048;2022-08-19T12:25:12;5.00;;;2.50;;
31994;SDS011;51311;50.870;7.048;2022-08-19T12:29:12;5.20;;;2.40;;
31994;SDS011;51311;50.870;7.048;2022-08-19T12:33:12;4.70;;;2.50;;
31994;SDS011;51311;50.870;7.048;2022-08-19T12:37:12;6.40;;;2.60;;
31994;SDS011;51311;50.870;7.048;2022-08-19T12:41:13;4.40;;;2.60;;
31994;SDS011;51311;50.870;7.048;2022-08-19T12:45:13;3.90;;;2.30;;
31994;SDS011;51311;50.870;7.048;2022-08-19T12:49:13;6.40;;;2.60;;
31994;SDS011;51311;50.870;7.048;2022-08-19T12:53:14;3.70;;;2.50;;
31994;SDS011;51311;50.870;7.048;2022-08-19T12:57:13;9.10;;;2.50;;
31994;SDS011;51311;50.870;7.048;2022-08-19T13:01:14;4.40;;;2.50;;
31994;SDS011;51311;50.870;7.048;2022-08-19T13:05:15;6.40;;;2.70;;
31994;SDS011;51311;50.870;7.048;2022-08-19T13:09:14;6.40;;;4.10;;
31994;SDS011;51311;50.870;7.048;2022-08-19T13:13:14;6.40;;;3.60;;
31994;SDS011;51311;50.870;7.048;2022-08-19T13:17:14;6.00;;;3.60;;
31994;SDS011;51311;50.870;7.048;2022-08-19T13:21:14;7.90;;;4.40;;
31994;SDS011;51311;50.870;7.048;2022-08-19T13:25:15;10.60;;;5.50;;
31994;SDS011;51311;50.870;7.048;2022-08-19T13:29:15;8.50;;;5.10;;
31994;SDS011;51311;50.870;7.048;2022-08-19T13:33:15;10.10;;;5.60;;
31994;SDS011;51311;50.870;7.048;2022-08-19T13:37:15;11.20;;;6.40;;
31994;SDS011;51311;50.870;7.048;2022-08-19T13:41:15;13.20;;;6.80;;
31994;SDS011;51311;50.870;7.048;2022-08-19T13:45:16;16.40;;;7.10;;
31994;SDS011;51311;50.870;7.048;2022-08-19T13:49:16;13.60;;;7.40;;
31994;SDS011;51311;50.870;7.048;2022-08-19T13:53:16;15.90;;;8.00;;
31994;SDS011;51311;50.870;7.048;2022-08-19T13:57:16;15.40;;;7.80;;
31994;SDS011;51311;50.870;7.048;2022-08-19T14:01:19;18.10;;;8.50;;
31994;SDS011;51311;50.870;7.048;2022-08-19T14:05:17;15.10;;;9.30;;
31994;SDS011;51311;50.870;7.048;2022-08-19T14:09:17;16.80;;;9.90;;
31994;SDS011;51311;50.870;7.048;2022-08-19T14:13:18;18.10;;;10.70;;
31994;SDS011;51311;50.870;7.048;2022-08-19T14:17:17;21.00;;;11.40;;
31994;SDS011;51311;50.870;7.048;2022-08-19T14:21:19;18.30;;;10.90;;
31994;SDS011;51311;50.870;7.048;2022-08-19T14:25:19;20.30;;;11.50;;
31994;SDS011;51311;50.870;7.048;2022-08-19T14:29:17;20.90;;;12.50;;
31994;SDS011;51311;50.870;7.048;2022-08-19T14:33:18;26.70;;;12.70;;
31994;SDS011;51311;50.870;7.048;2022-08-19T14:37:18;23.00;;;12.80;;
31994;SDS011;51311;50.870;7.048;2022-08-19T14:41:20;27.60;;;13.30;;
31994;SDS011;51311;50.870;7.048;2022-08-19T14:45:18;23.80;;;12.50;;
31994;SDS011;51311;50.870;7.048;2022-08-19T14:49:18;23.90;;;13.50;;
31994;SDS011;51311;50.870;7.048;2022-08-19T14:53:18;23.30;;;13.90;;
31994;SDS011;51311;50.870;7.048;2022-08-19T14:57:19;27.20;;;13.90;;
31994;SDS011;51311;50.870;7.048;2022-08-19T15:01:20;25.10;;;14.30;;
31994;SDS011;51311;50.870;7.048;2022-08-19T15:05:19;22.60;;;12.90;;
31994;SDS011;51311;50.870;7.048;2022-08-19T15:09:19;26.70;;;13.10;;
31994;SDS011;51311;50.870;7.048;2022-08-19T15:13:19;24.10;;;13.70;;
31994;SDS011;51311;50.870;7.048;2022-08-19T15:17:20;25.10;;;13.30;;
31994;SDS011;51311;50.870;7.048;2022-08-19T15:21:20;23.40;;;13.00;;
31994;SDS011;51311;50.870;7.048;2022-08-19T15:29:20;19.80;;;11.90;;
31994;SDS011;51311;50.870;7.048;2022-08-19T15:33:20;25.80;;;12.50;;
31994;SDS011;51311;50.870;7.048;2022-08-19T15:37:20;20.80;;;11.50;;
31994;SDS011;51311;50.870;7.048;2022-08-19T15:41:23;24.10;;;12.40;;
31994;SDS011;51311;50.870;7.048;2022-08-19T15:45:21;21.90;;;12.60;;
31994;SDS011;51311;50.870;7.048;2022-08-19T15:49:21;21.70;;;11.70;;
31994;SDS011;51311;50.870;7.048;2022-08-19T15:53:21;22.00;;;11.90;;
31994;SDS011;51311;50.870;7.048;2022-08-19T15:57:21;21.90;;;12.10;;
31994;SDS011;51311;50.870;7.048;2022-08-19T16:01:22;22.00;;;11.70;;
31994;SDS011;51311;50.870;7.048;2022-08-19T16:05:23;20.20;;;12.00;;
31994;SDS011;51311;50.870;7.048;2022-08-19T16:09:23;21.20;;;11.70;;
31994;SDS011;51311;50.870;7.048;2022-08-19T16:13:22;23.40;;;11.50;;
31994;SDS011;51311;50.870;7.048;2022-08-19T16:17:22;19.90;;;11.60;;
31994;SDS011;51311;50.870;7.048;2022-08-19T16:21:23;21.20;;;11.50;;
31994;SDS011;51311;50.870;7.048;2022-08-19T16:25:23;20.50;;;11.50;;
31994;SDS011;51311;50.870;7.048;2022-08-19T16:29:23;19.10;;;11.80;;
31994;SDS011;51311;50.870;7.048;2022-08-19T16:33:23;20.90;;;11.50;;
31994;SDS011;51311;50.870;7.048;2022-08-19T16:37:23;19.20;;;10.90;;
31994;SDS011;51311;50.870;7.048;2022-08-19T16:41:23;19.00;;;10.70;;
31994;SDS011;51311;50.870;7.048;2022-08-19T16:45:23;19.00;;;10.70;;
31994;SDS011;51311;50.870;7.048;2022-08-19T16:49:24;18.30;;;11.00;;
31994;SDS011;51311;50.870;7.048;2022-08-19T16:53:24;16.50;;;10.40;;
31994;SDS011;51311;50.870;7.048;2022-08-19T16:57:24;18.00;;;9.90;;
31994;SDS011;51311;50.870;7.048;2022-08-19T17:01:24;17.00;;;9.70;;
31994;SDS011;51311;50.870;7.048;2022-08-19T17:05:24;14.60;;;9.20;;
31994;SDS011;51311;50.870;7.048;2022-08-19T17:09:24;16.00;;;9.80;;
31994;SDS011;51311;50.870;7.048;2022-08-19T17:13:26;16.80;;;9.90;;
31994;SDS011;51311;50.870;7.048;2022-08-19T17:17:25;15.00;;;9.00;;
31994;SDS011;51311;50.870;7.048;2022-08-19T17:21:26;16.70;;;8.90;;
31994;SDS011;51311;50.870;7.048;2022-08-19T17:25:26;14.50;;;8.50;;
31994;SDS011;51311;50.870;7.048;2022-08-19T17:29:25;15.30;;;8.70;;
31994;SDS011;51311;50.870;7.048;2022-08-19T17:33:25;14.50;;;9.20;;
31994;SDS011;51311;50.870;7.048;2022-08-19T17:37:26;15.90;;;8.50;;
31994;SDS011;51311;50.870;7.048;2022-08-19T17:41:27;14.30;;;8.30;;
31994;SDS011;51311;50.870;7.048;2022-08-19T17:45:26;13.00;;;7.60;;
31994;SDS011;51311;50.870;7.048;2022-08-19T17:49:26;18.50;;;8.30;;
31994;SDS011;51311;50.870;7.048;2022-08-19T17:53:26;16.10;;;8.10;;
31994;SDS011;51311;50.870;7.048;2022-08-19T17:57:27;12.50;;;7.70;;
31994;SDS011;51311;50.870;7.048;2022-08-19T18:01:27;14.60;;;7.80;;
31994;SDS011;51311;50.870;7.048;2022-08-19T18:05:29;11.20;;;7.00;;
31994;SDS011;51311;50.870;7.048;2022-08-19T18:09:28;13.10;;;7.70;;
31994;SDS011;51311;50.870;7.048;2022-08-19T18:13:27;12.10;;;7.50;;
31994;SDS011;51311;50.870;7.048;2022-08-19T18:17:27;10.50;;;6.70;;
31994;SDS011;51311;50.870;7.048;2022-08-19T18:21:28;13.50;;;7.10;;
31994;SDS011;51311;50.870;7.048;2022-08-19T18:25:28;11.10;;;6.50;;
31994;SDS011;51311;50.870;7.048;2022-08-19T18:29:28;10.20;;;7.00;;
31994;SDS011;51311;50.870;7.048;2022-08-19T18:33:28;11.70;;;6.80;;
31994;SDS011;51311;50.870;7.048;2022-08-19T18:37:28;11.00;;;6.60;;
31994;SDS011;51311;50.870;7.048;2022-08-19T18:41:28;12.20;;;6.30;;
31994;SDS011;51311;50.870;7.048;2022-08-19T18:45:29;10.50;;;6.50;;
31994;SDS011;51311;50.870;7.048;2022-08-19T18:49:30;10.50;;;6.20;;
31994;SDS011;51311;50.870;7.048;2022-08-19T18:53:31;10.80;;;6.30;;
31994;SDS011;51311;50.870;7.048;2022-08-19T18:57:29;9.70;;;6.00;;
31994;SDS011;51311;50.870;7.048;2022-08-19T19:01:31;10.30;;;6.00;;
31994;SDS011;51311;50.870;7.048;2022-08-19T19:05:29;12.80;;;6.20;;
31994;SDS011;51311;50.870;7.048;2022-08-19T19:09:30;10.20;;;5.60;;
31994;SDS011;51311;50.870;7.048;2022-08-19T19:13:31;8.80;;;5.60;;
31994;SDS011;51311;50.870;7.048;2022-08-19T19:17:30;8.50;;;5.40;;
31994;SDS011;51311;50.870;7.048;2022-08-19T19:21:30;8.80;;;5.70;;
31994;SDS011;51311;50.870;7.048;2022-08-19T19:25:30;9.90;;;5.40;;
31994;SDS011;51311;50.870;7.048;2022-08-19T19:29:31;9.00;;;5.40;;
31994;SDS011;51311;50.870;7.048;2022-08-19T19:33:31;7.80;;;4.80;;
31994;SDS011;51311;50.870;7.048;2022-08-19T19:37:31;9.10;;;4.70;;
31994;SDS011;51311;50.870;7.048;2022-08-19T19:41:31;10.40;;;5.20;;
31994;SDS011;51311;50.870;7.048;2022-08-19T19:45:31;8.10;;;5.00;;
31994;SDS011;51311;50.870;7.048;2022-08-19T19:49:31;7.90;;;4.70;;
31994;SDS011;51311;50.870;7.048;2022-08-19T19:53:32;9.80;;;5.20;;
31994;SDS011;51311;50.870;7.048;2022-08-19T19:57:32;8.30;;;4.90;;
31994;SDS011;51311;50.870;7.048;2022-08-19T20:01:32;7.50;;;4.90;;
31994;SDS011;51311;50.870;7.048;2022-08-19T20:05:32;8.60;;;4.80;;
31994;SDS011;51311;50.870;7.048;2022-08-19T20:09:32;9.20;;;4.70;;
31994;SDS011;51311;50.870;7.048;2022-08-19T20:13:33;7.40;;;4.40;;
31994;SDS011;51311;50.870;7.048;2022-08-19T20:17:33;6.70;;;4.30;;
31994;SDS011;51311;50.870;7.048;2022-08-19T20:21:33;7.50;;;4.40;;
31994;SDS011;51311;50.870;7.048;2022-08-19T20:25:33;5.80;;;3.80;;
31994;SDS011;51311;50.870;7.048;2022-08-19T20:29:33;8.20;;;4.30;;
31994;SDS011;51311;50.870;7.048;2022-08-19T20:33:33;7.20;;;4.50;;
31994;SDS011;51311;50.870;7.048;2022-08-19T20:37:33;5.90;;;3.70;;
31994;SDS011;51311;50.870;7.048;2022-08-19T20:41:34;7.60;;;4.00;;
31994;SDS011;51311;50.870;7.048;2022-08-19T20:45:34;5.60;;;3.50;;
31994;SDS011;51311;50.870;7.048;2022-08-19T20:49:34;5.50;;;3.50;;
31994;SDS011;51311;50.870;7.048;2022-08-19T20:53:35;6.30;;;3.80;;
31994;SDS011;51311;50.870;7.048;2022-08-19T20:57:35;5.80;;;3.50;;
31994;SDS011;51311;50.870;7.048;2022-08-19T21:01:35;5.90;;;3.60;;
31994;SDS011;51311;50.870;7.048;2022-08-19T21:05:35;6.60;;;3.70;;
31994;SDS011;51311;50.870;7.048;2022-08-19T21:09:35;7.10;;;4.00;;
31994;SDS011;51311;50.870;7.048;2022-08-19T21:13:35;7.70;;;3.60;;
31994;SDS011;51311;50.870;7.048;2022-08-19T21:17:35;6.20;;;3.20;;
31994;SDS011;51311;50.870;7.048;2022-08-19T21:21:35;5.80;;;3.50;;
31994;SDS011;51311;50.870;7.048;2022-08-19T21:25:36;4.90;;;3.00;;
31994;SDS011;51311;50.870;7.048;2022-08-19T21:29:36;5.20;;;3.10;;
31994;SDS011;51311;50.870;7.048;2022-08-19T21:33:36;5.50;;;2.90;;
31994;SDS011;51311;50.870;7.048;2022-08-19T21:37:36;6.70;;;3.40;;
31994;SDS011;51311;50.870;7.048;2022-08-19T21:41:36;5.60;;;2.80;;
31994;SDS011;51311;50.870;7.048;2022-08-19T21:45:36;4.90;;;2.90;;
31994;SDS011;51311;50.870;7.048;2022-08-19T21:49:37;6.00;;;2.90;;
31994;SDS011;51311;50.870;7.048;2022-08-19T21:53:37;4.70;;;3.00;;
31994;SDS011;51311;50.870;7.048;2022-08-19T21:57:37;4.70;;;2.80;;
31994;SDS011;51311;50.870;7.048;2022-08-19T22:01:37;4.40;;;2.40;;
31994;SDS011;51311;50.870;7.048;2022-08-19T22:05:37;5.10;;;2.90;;
31994;SDS011;51311;50.870;7.048;2022-08-19T22:09:38;5.30;;;2.70;;
31994;SDS011;51311;50.870;7.048;2022-08-19T22:13:38;5.40;;;2.80;;
31994;SDS011;51311;50.870;7.048;2022-08-19T22:17:38;5.60;;;2.80;;
31994;SDS011;51311;50.870;7.048;2022-08-19T22:21:38;5.70;;;2.70;;
31994;SDS011;51311;50.870;7.048;2022-08-19T22:25:39;4.10;;;2.40;;
31994;SDS011;51311;50.870;7.048;2022-08-19T22:29:38;4.70;;;2.80;;
31994;SDS011;51311;50.870;7.048;2022-08-19T22:33:39;5.10;;;2.40;;
31994;SDS011;51311;50.870;7.048;2022-08-19T22:37:39;4.50;;;2.60;;
31994;SDS011;51311;50.870;7.048;2022-08-19T22:41:39;4.30;;;2.30;;
31994;SDS011;51311;50.870;7.048;2022-08-19T22:45:39;4.00;;;2.30;;
31994;SDS011;51311;50.870;7.048;2022-08-19T22:49:39;4.30;;;2.30;;
31994;SDS011;51311;50.870;7.048;2022-08-19T22:53:41;3.60;;;2.10;;
31994;SDS011;51311;50.870;7.048;2022-08-19T22:57:40;5.60;;;2.50;;
31994;SDS011;51311;50.870;7.048;2022-08-19T23:01:40;4.20;;;1.80;;
31994;SDS011;51311;50.870;7.048;2022-08-19T23:05:40;3.80;;;1.80;;
31994;SDS011;51311;50.870;7.048;2022-08-19T23:09:40;3.60;;;1.90;;
31994;SDS011;51311;50.870;7.048;2022-08-19T23:13:40;4.10;;;2.40;;
31994;SDS011;51311;50.870;7.048;2022-08-19T23:17:41;3.70;;;2.20;;
31994;SDS011;51311;50.870;7.048;2022-08-19T23:21:41;3.90;;;1.60;;
31994;SDS011;51311;50.870;7.048;2022-08-19T23:25:41;4.00;;;1.70;;
31994;SDS011;51311;50.870;7.048;2022-08-19T23:29:41;3.10;;;1.80;;
31994;SDS011;51311;50.870;7.048;2022-08-19T23:33:41;3.80;;;2.00;;
31994;SDS011;51311;50.870;7.048;2022-08-19T23:37:41;3.50;;;1.80;;
31994;SDS011;51311;50.870;7.048;2022-08-19T23:41:41;3.50;;;1.60;;
31994;SDS011;51311;50.870;7.048;2022-08-19T23:45:42;2.70;;;1.50;;
31994;SDS011;51311;50.870;7.048;2022-08-19T23:53:42;4.00;;;1.70;;
31994;SDS011;51311;50.870;7.048;2022-08-19T23:57:42;2.70;;;1.70;;
